createdAt,value
2019-04-05T00:00:34.405Z,99399.91
2019-04-05T00:03:06.604Z,99407.53
2019-04-05T00:05:37.912Z,99402.39
2019-04-05T00:08:10.032Z,99402.13
2019-04-05T00:10:41.132Z,99407.54
2019-04-05T00:13:13.420Z,99409.99
2019-04-05T00:15:46.612Z,99418.36
2019-04-05T00:18:18.652Z,99414.26
2019-04-05T00:20:50.841Z,99412.39
2019-04-05T00:23:22.131Z,99411.52
2019-04-05T00:25:54.121Z,99407.61
2019-04-05T00:28:25.300Z,99410.91
2019-04-05T00:30:57.372Z,99406.69
2019-04-05T00:33:29.322Z,99404.14
2019-04-05T00:36:01.452Z,99406.11
2019-04-05T00:38:33.593Z,99414.63
2019-04-05T00:41:05.793Z,99410.94
2019-04-05T00:43:36.860Z,99410.36
2019-04-05T00:46:08.684Z,99409.24
2019-04-05T00:48:40.782Z,99407.62
2019-04-05T00:51:13.132Z,99404.97
2019-04-05T00:53:45.585Z,99409.40
2019-04-05T00:56:17.712Z,99413.92
2019-04-05T00:58:49.983Z,99409.08
2019-04-05T01:01:21.110Z,99413.86
2019-04-05T01:03:52.882Z,99411.63
2019-04-05T01:06:25.172Z,99413.53
2019-04-05T01:08:56.220Z,99412.36
2019-04-05T01:11:28.572Z,99421.30
2019-04-05T01:13:59.771Z,99417.86
2019-04-05T01:16:31.752Z,99414.66
2019-04-05T01:19:04.176Z,99420.80
2019-04-05T01:21:40.881Z,99415.51
2019-04-05T01:24:13.992Z,99410.83
2019-04-05T01:26:47.435Z,99412.47
2019-04-05T01:29:21.003Z,99415.08
2019-04-05T01:31:53.482Z,99416.71
2019-04-05T01:34:25.891Z,99409.45
2019-04-05T01:36:58.252Z,99414.61
2019-04-05T01:39:31.323Z,99414.55
2019-04-05T01:42:03.783Z,99411.02
2019-04-05T01:44:38.345Z,99411.88
2019-04-05T01:47:10.391Z,99412.27
2019-04-05T01:49:42.632Z,99411.49
2019-04-05T01:52:13.841Z,99410.25
2019-04-05T01:54:45.934Z,99414.76
2019-04-05T01:57:17.180Z,99420.03
2019-04-05T01:59:49.234Z,99413.36
2019-04-05T02:02:21.232Z,99414.73
2019-04-05T02:04:53.442Z,99414.87
2019-04-05T02:07:24.624Z,99418.05
2019-04-05T02:10:00.082Z,99420.59
2019-04-05T02:12:32.281Z,99428.46
2019-04-05T02:15:05.074Z,99422.77
2019-04-05T02:17:38.179Z,99422.30
2019-04-05T02:20:09.520Z,99416.73
2019-04-05T02:22:41.353Z,99424.80
2019-04-05T02:25:13.742Z,99418.92
2019-04-05T02:27:44.820Z,99416.90
2019-04-05T02:30:17.262Z,99409.27
2019-04-05T02:32:49.971Z,99413.25
2019-04-05T02:35:22.327Z,99419.97
2019-04-05T02:37:53.350Z,99424.69
2019-04-05T02:40:26.991Z,99423.16
2019-04-05T02:43:01.513Z,99424.17
2019-04-05T02:45:36.346Z,99420.41
2019-04-05T02:48:11.381Z,99423.39
2019-04-05T02:50:46.861Z,99427.01
2019-04-05T02:53:20.735Z,99426.11
2019-04-05T02:55:53.395Z,99422.59
2019-04-05T02:58:26.022Z,99428.06
2019-04-05T03:00:59.017Z,99424.00
2019-04-05T03:03:31.321Z,99424.56
2019-04-05T03:06:04.788Z,99429.86
2019-04-05T03:08:37.493Z,99430.70
2019-04-05T03:11:13.789Z,99429.00
2019-04-05T03:13:51.321Z,99422.77
2019-04-05T03:16:40.418Z,99426.03
2019-04-05T03:19:07.158Z,99430.98
2019-04-05T03:21:43.425Z,99434.53
2019-04-05T03:24:19.737Z,99435.00
2019-04-05T03:27:07.222Z,99435.14
2019-04-05T03:29:39.604Z,99434.75
2019-04-05T03:32:12.047Z,99436.27
2019-04-05T03:34:45.585Z,99439.77
2019-04-05T03:37:18.441Z,99442.64
2019-04-05T03:39:50.745Z,99433.36
2019-04-05T03:42:22.112Z,99434.14
2019-04-05T03:44:54.392Z,99446.36
2019-04-05T03:47:26.583Z,99445.84
2019-04-05T03:53:29.801Z,99453.64
2019-04-05T03:56:00.928Z,99460.31
2019-04-05T03:58:32.772Z,99457.36
2019-04-05T04:01:04.888Z,99452.99
2019-04-05T04:03:37.150Z,99460.27
2019-04-05T04:06:09.289Z,99463.69
2019-04-05T04:08:40.428Z,99467.02
2019-04-05T04:11:12.727Z,99460.69
2019-04-05T04:13:44.961Z,99472.50
2019-04-05T04:16:17.279Z,99461.45
2019-04-05T04:18:48.341Z,99466.66
2019-04-05T04:21:51.350Z,99469.99
2019-04-05T04:24:23.518Z,99469.39
2019-04-05T04:26:55.554Z,99467.80
2019-04-05T04:29:26.810Z,99469.84
2019-04-05T04:31:58.731Z,99471.09
2019-04-05T04:34:29.879Z,99474.00
2019-04-05T04:37:02.069Z,99471.80
2019-04-05T04:39:34.283Z,99472.40
2019-04-05T04:42:07.041Z,99470.84
2019-04-05T04:44:39.272Z,99477.20
2019-04-05T04:47:25.072Z,99481.28
2019-04-05T04:49:45.843Z,99476.33
2019-04-05T04:52:18.652Z,99476.92
2019-04-05T04:54:50.703Z,99474.25
2019-04-05T04:57:22.661Z,99483.16
2019-04-05T04:59:54.968Z,99481.20
2019-04-05T05:02:26.389Z,99487.05
2019-04-05T05:04:58.889Z,99486.81
2019-04-05T05:07:31.468Z,99476.16
2019-04-05T05:10:03.417Z,99480.66
2019-04-05T05:12:36.728Z,99483.03
2019-04-05T05:15:07.699Z,99485.30
2019-04-05T05:17:39.771Z,99485.88
2019-04-05T05:20:10.979Z,99480.33
2019-04-05T05:22:43.221Z,99486.08
2019-04-05T05:25:15.470Z,99486.16
2019-04-05T05:27:47.999Z,99489.23
2019-04-05T05:30:20.151Z,99490.91
2019-04-05T05:32:52.462Z,99487.45
2019-04-05T05:35:24.710Z,99484.44
2019-04-05T05:37:55.779Z,99484.90
2019-04-05T05:40:35.098Z,99492.83
2019-04-05T05:43:04.050Z,99494.48
2019-04-05T05:45:35.180Z,99502.59
2019-04-05T05:48:07.281Z,99498.30
2019-04-05T05:50:39.444Z,99504.97
2019-04-05T05:53:11.591Z,99502.48
2019-04-05T05:55:42.622Z,99502.16
2019-04-05T05:58:14.514Z,99505.59
2019-04-05T06:00:47.472Z,99497.20
2019-04-05T06:03:19.491Z,99495.94
2019-04-05T06:06:03.578Z,99496.57
2019-04-05T06:08:25.411Z,99499.31
2019-04-05T06:10:56.485Z,99502.28
2019-04-05T06:13:28.311Z,99497.83
2019-04-05T06:16:00.499Z,99496.98
2019-04-05T06:18:31.629Z,99492.60
2019-04-05T06:21:03.667Z,99499.05
2019-04-05T06:23:35.919Z,99504.20
2019-04-05T06:26:06.983Z,99502.42
2019-04-05T06:28:39.069Z,99502.05
2019-04-05T06:31:11.178Z,99507.91
2019-04-05T06:33:43.812Z,99507.47
2019-04-05T06:36:15.760Z,99508.87
2019-04-05T06:38:48.451Z,99513.23
2019-04-05T06:41:20.618Z,99511.64
2019-04-05T06:43:51.574Z,99518.47
2019-04-05T06:46:23.504Z,99518.52
2019-04-05T06:48:54.657Z,99515.03
2019-04-05T06:51:26.514Z,99509.50
2019-04-05T06:53:59.069Z,99516.27
2019-04-05T06:56:31.023Z,99518.36
2019-04-05T06:59:03.173Z,99517.27
2019-04-05T07:01:35.408Z,99514.97
2019-04-05T07:04:06.412Z,99514.68
2019-04-05T07:06:38.261Z,99522.91
2019-04-05T07:09:10.399Z,99521.19
2019-04-05T07:11:41.449Z,99522.09
2019-04-05T07:14:14.334Z,99523.39
2019-04-05T07:16:45.229Z,99523.48
2019-04-05T07:19:17.140Z,99521.02
2019-04-05T07:21:48.501Z,99516.47
2019-04-05T07:24:20.213Z,99521.28
2019-04-05T07:26:52.490Z,99520.42
2019-04-05T07:29:23.501Z,99520.03
2019-04-05T07:31:55.372Z,99513.72
2019-04-05T07:34:27.772Z,99515.70
2019-04-05T07:37:00.440Z,99516.02
2019-04-05T07:39:32.426Z,99524.33
2019-04-05T07:42:04.681Z,99519.01
2019-04-05T07:44:35.589Z,99519.97
2019-04-05T07:47:07.330Z,99522.20
2019-04-05T07:49:39.401Z,99517.05
2019-04-05T07:52:13.024Z,99519.04
2019-04-05T07:54:45.351Z,99511.99
2019-04-05T07:57:16.419Z,99523.31
2019-04-05T07:59:48.221Z,99521.24
2019-04-05T08:02:20.321Z,99529.67
2019-04-05T08:04:54.639Z,99530.03
2019-04-05T08:07:29.608Z,99525.05
2019-04-05T08:10:03.183Z,99520.86
2019-04-05T08:12:35.953Z,99529.21
2019-04-05T08:15:09.500Z,99522.92
2019-04-05T08:17:41.488Z,99509.73
2019-04-05T08:20:13.749Z,99512.89
2019-04-05T08:22:44.632Z,99517.45
2019-04-05T08:25:16.544Z,99517.28
2019-04-05T08:27:48.701Z,99515.11
2019-04-05T08:30:19.819Z,99514.12
2019-04-05T08:32:51.729Z,99513.59
2019-04-05T08:35:23.698Z,99517.16
2019-04-05T08:37:55.721Z,99521.08
2019-04-05T08:40:27.760Z,99523.16
2019-04-05T08:42:59.828Z,99527.13
2019-04-05T08:45:31.729Z,99517.45
2019-04-05T08:48:03.839Z,99513.66
2019-04-05T08:50:35.995Z,99518.25
2019-04-05T08:53:09.659Z,99514.05
2019-04-05T08:55:40.779Z,99512.61
2019-04-05T08:58:12.672Z,99508.08
2019-04-05T09:00:44.686Z,99510.66
2019-04-05T09:03:16.761Z,99514.06
2019-04-05T09:05:49.424Z,99513.13
2019-04-05T09:08:21.549Z,99509.03
2019-04-05T09:10:54.710Z,99503.06
2019-04-05T09:13:26.850Z,99501.76
2019-04-05T09:15:57.839Z,99506.34
2019-04-05T09:18:29.940Z,99490.09
2019-04-05T09:21:02.069Z,99487.14
2019-04-05T09:23:33.199Z,99490.35
2019-04-05T09:26:05.541Z,99490.86
2019-04-05T09:28:37.508Z,99484.66
2019-04-05T09:31:09.839Z,99487.04
2019-04-05T09:33:41.888Z,99485.17
2019-04-05T09:36:13.801Z,99478.77
2019-04-05T09:38:45.900Z,99477.51
2019-04-05T09:41:16.990Z,99481.86
2019-04-05T09:43:49.249Z,99472.17
2019-04-05T09:46:21.323Z,99478.19
2019-04-05T09:48:53.498Z,99478.52
2019-04-05T09:51:25.388Z,99481.53
2019-04-05T09:53:57.419Z,99481.86
2019-04-05T09:56:28.378Z,99482.37
2019-04-05T09:59:00.102Z,99482.33
2019-04-05T10:01:32.211Z,99481.84
2019-04-05T10:04:04.825Z,99481.19
2019-04-05T10:06:36.742Z,99489.38
2019-04-05T10:09:09.868Z,99483.63
2019-04-05T10:11:41.968Z,99483.94
2019-04-05T10:14:14.178Z,99493.41
2019-04-05T10:16:46.244Z,99487.21
2019-04-05T10:19:18.572Z,99483.46
2019-04-05T10:21:50.683Z,99484.66
2019-04-05T10:24:22.830Z,99476.28
2019-04-05T10:26:54.029Z,99476.78
2019-04-05T10:29:26.239Z,99472.02
2019-04-05T10:31:57.149Z,99470.03
2019-04-05T10:34:29.049Z,99466.26
2019-04-05T10:37:01.389Z,99474.81
2019-04-05T10:39:32.504Z,99468.27
2019-04-05T10:42:04.689Z,99470.42
2019-04-05T10:44:36.740Z,99470.20
2019-04-05T10:47:08.901Z,99472.27
2019-04-05T10:49:40.989Z,99476.80
2019-04-05T10:52:13.049Z,99469.53
2019-04-05T10:54:45.240Z,99474.50
2019-04-05T10:57:16.140Z,99469.07
2019-04-05T10:59:48.311Z,99472.58
2019-04-05T11:02:20.468Z,99468.33
2019-04-05T11:04:51.459Z,99468.16
2019-04-05T11:07:23.202Z,99473.03
2019-04-05T11:09:54.233Z,99461.56
2019-04-05T11:12:26.130Z,99474.84
2019-04-05T11:14:58.248Z,99477.14
2019-04-05T11:17:30.293Z,99471.25
2019-04-05T11:20:06.987Z,99477.47
2019-04-05T11:22:36.061Z,99475.48
2019-04-05T11:25:08.931Z,99478.90
2019-04-05T11:27:41.139Z,99467.69
2019-04-05T11:30:15.022Z,99477.94
2019-04-05T11:32:47.549Z,99480.82
2019-04-05T11:35:19.731Z,99469.63
2019-04-05T11:37:54.121Z,99468.28
2019-04-05T11:40:25.742Z,99467.97
2019-04-05T11:42:59.270Z,99467.90
2019-04-05T11:45:33.221Z,99464.73
2019-04-05T11:48:06.049Z,99464.30
2019-04-05T11:50:38.229Z,99454.19
2019-04-05T11:53:10.429Z,99455.43
2019-04-05T11:55:42.504Z,99452.16
2019-04-05T11:58:14.892Z,99460.56
2019-04-05T12:00:51.184Z,99450.13
2019-04-05T12:03:23.343Z,99448.92
2019-04-05T12:05:55.424Z,99452.84
2019-04-05T12:08:28.491Z,99444.95
2019-04-05T12:11:01.582Z,99439.37
2019-04-05T12:13:33.619Z,99441.23
2019-04-05T12:16:07.235Z,99433.88
2019-04-05T12:18:39.644Z,99438.09
2019-04-05T12:21:10.719Z,99442.09
2019-04-05T12:23:43.409Z,99428.81
2019-04-05T12:26:15.389Z,99432.17
2019-04-05T12:28:47.551Z,99431.91
2019-04-05T12:31:20.180Z,99436.36
2019-04-05T12:33:52.535Z,99424.48
2019-04-05T12:36:24.644Z,99426.70
2019-04-05T12:38:56.581Z,99422.77
2019-04-05T12:41:27.541Z,99422.22
2019-04-05T12:43:59.290Z,99421.05
2019-04-05T12:46:31.431Z,99415.66
2019-04-05T12:49:06.319Z,99412.06
2019-04-05T12:51:37.879Z,99412.25
2019-04-05T12:54:10.041Z,99407.38
2019-04-05T12:56:42.289Z,99408.05
2019-04-05T12:59:14.332Z,99406.94
2019-04-05T13:01:46.627Z,99403.52
2019-04-05T13:04:20.663Z,99402.27
2019-04-05T13:06:53.706Z,99400.55
2019-04-05T13:09:25.888Z,99399.95
2019-04-05T13:11:58.014Z,99403.36
2019-04-05T13:14:30.077Z,99401.69
2019-04-05T13:17:02.837Z,99396.03
2019-04-05T13:19:36.068Z,99395.96
2019-04-05T13:22:08.651Z,99396.50
2019-04-05T13:24:40.856Z,99393.38
2019-04-05T13:27:13.141Z,99395.14
2019-04-05T13:29:45.201Z,99392.00
2019-04-05T13:32:19.376Z,99397.17
2019-04-05T13:34:51.426Z,99392.30
2019-04-05T13:37:23.460Z,99389.19
2019-04-05T13:39:55.560Z,99381.70
2019-04-05T13:42:31.223Z,99386.00
2019-04-05T13:45:01.451Z,99382.59
2019-04-05T13:47:37.768Z,99388.59
2019-04-05T13:50:11.374Z,99388.33
2019-04-05T13:52:43.503Z,99389.84
2019-04-05T13:55:15.720Z,99389.65
2019-04-05T13:57:47.801Z,99389.88
2019-04-05T14:00:23.229Z,99389.84
2019-04-05T14:02:58.479Z,99390.15
2019-04-05T14:05:30.774Z,99392.08
2019-04-05T14:08:10.267Z,99388.03
2019-04-05T14:10:36.933Z,99386.33
2019-04-05T14:13:09.909Z,99387.21
2019-04-05T14:15:43.070Z,99389.48
2019-04-05T14:18:15.475Z,99386.05
2019-04-05T14:20:50.602Z,99389.30
2019-04-05T14:23:25.309Z,99378.41
2019-04-05T14:26:03.110Z,99379.61
2019-04-05T14:28:35.282Z,99386.27
2019-04-05T14:31:07.445Z,99379.39
2019-04-05T14:33:39.732Z,99379.95
2019-04-05T14:36:13.822Z,99383.13
2019-04-05T14:38:46.059Z,99377.80
2019-04-05T14:41:44.741Z,99377.17
2019-04-05T14:44:22.621Z,99384.20
2019-04-05T14:46:55.869Z,99373.78
2019-04-05T14:49:30.700Z,99380.17
2019-04-05T14:52:02.522Z,99377.34
2019-04-05T14:54:34.689Z,99381.20
2019-04-05T14:57:07.129Z,99376.02
2019-04-05T14:59:39.889Z,99376.69
2019-04-05T15:02:13.129Z,99380.06
2019-04-05T15:04:49.426Z,99368.17
2019-04-05T15:07:21.579Z,99370.52
2019-04-05T15:09:55.520Z,99374.56
2019-04-05T15:12:29.182Z,99371.52
2019-04-05T15:15:01.109Z,99380.33
2019-04-05T15:17:47.176Z,99373.39
2019-04-05T15:20:11.039Z,99373.66
2019-04-05T15:22:44.081Z,99374.13
2019-04-05T15:25:17.493Z,99374.95
2019-04-05T15:27:55.147Z,99378.52
2019-04-05T15:30:26.448Z,99381.25
2019-04-05T15:32:59.710Z,99374.42
2019-04-05T15:35:31.841Z,99374.57
2019-04-05T15:38:04.269Z,99378.48
2019-04-05T15:40:36.764Z,99382.56
2019-04-05T15:43:09.931Z,99380.18
2019-04-05T15:45:46.772Z,99382.30
2019-04-05T15:48:20.489Z,99384.48
2019-04-05T15:50:55.898Z,99396.69
2019-04-05T15:53:26.648Z,99398.66
2019-04-05T15:55:59.090Z,99400.64
2019-04-05T15:58:34.166Z,99403.66
2019-04-05T16:01:06.371Z,99405.28
2019-04-05T16:03:38.911Z,99402.42
2019-04-05T16:06:11.068Z,99399.61
2019-04-05T16:08:42.141Z,99405.59
2019-04-05T16:11:13.989Z,99413.20
2019-04-05T16:13:45.061Z,99412.97
2019-04-05T16:16:17.171Z,99415.44
2019-04-05T16:18:49.249Z,99415.23
2019-04-05T16:21:20.349Z,99419.11
2019-04-05T16:23:52.490Z,99425.92
2019-04-05T16:26:24.600Z,99426.56
2019-04-05T16:28:55.819Z,99424.30
2019-04-05T16:31:28.848Z,99426.40
2019-04-05T16:34:01.019Z,99418.41
2019-04-05T16:36:32.109Z,99423.77
2019-04-05T16:39:06.209Z,99428.83
2019-04-05T16:41:40.011Z,99437.78
2019-04-05T16:44:11.169Z,99432.32
2019-04-05T16:46:43.172Z,99437.04
2019-04-05T16:49:15.679Z,99435.73
2019-04-05T16:51:47.893Z,99445.80
2019-04-05T16:54:19.079Z,99443.55
2019-04-05T16:56:51.169Z,99451.89
2019-04-05T16:59:24.364Z,99452.86
2019-04-05T17:04:17.076Z,99447.47
2019-04-05T17:06:48.289Z,99455.55
2019-04-05T17:09:20.299Z,99456.35
2019-04-05T17:11:52.259Z,99455.27
2019-04-05T17:14:40.408Z,99458.50
2019-04-05T17:17:12.719Z,99456.06
2019-04-05T17:19:49.662Z,99464.98
2019-04-05T17:22:21.895Z,99469.88
2019-04-05T17:24:54.089Z,99467.69
2019-04-05T17:27:26.041Z,99473.94
2019-04-05T17:29:58.299Z,99472.12
2019-04-05T17:32:31.789Z,99478.20
2019-04-05T17:35:04.083Z,99476.39
2019-04-05T17:37:36.403Z,99482.25
2019-04-05T17:40:09.189Z,99488.11
2019-04-05T17:42:42.589Z,99491.30
2019-04-05T17:45:14.808Z,99486.89
2019-04-05T17:47:45.759Z,99494.06
2019-04-05T17:50:29.860Z,99493.86
2019-04-05T17:53:12.110Z,99494.67
2019-04-05T17:55:38.471Z,99502.30
2019-04-05T17:58:10.992Z,99503.70
2019-04-05T18:00:44.560Z,99507.11
2019-04-05T18:03:17.672Z,99509.23
2019-04-05T18:05:50.501Z,99509.69
2019-04-05T18:08:22.801Z,99516.13
2019-04-05T18:10:55.120Z,99513.56
2019-04-05T18:13:26.139Z,99520.00
2019-04-05T18:15:58.284Z,99529.19
2019-04-05T18:18:29.409Z,99525.73
2019-04-05T18:21:03.668Z,99534.53
2019-04-05T18:23:35.699Z,99528.30
2019-04-05T18:26:07.735Z,99539.81
2019-04-05T18:28:39.810Z,99533.48
2019-04-05T18:31:11.791Z,99534.41
2019-04-05T18:33:44.241Z,99534.73
2019-04-05T18:36:16.391Z,99540.96
2019-04-05T18:38:49.828Z,99538.84
2019-04-05T18:41:22.813Z,99534.03
2019-04-05T18:43:55.765Z,99535.18
2019-04-05T18:46:27.921Z,99538.70
2019-04-05T18:49:06.681Z,99534.84
2019-04-05T18:51:38.901Z,99536.91
2019-04-05T18:54:09.979Z,99540.51
2019-04-05T18:56:41.859Z,99537.43
2019-04-05T18:59:13.834Z,99537.98
2019-04-05T19:01:46.041Z,99532.77
2019-04-05T19:04:17.199Z,99539.55
2019-04-05T19:06:49.088Z,99543.42
2019-04-05T19:09:21.050Z,99541.64
2019-04-05T19:11:53.031Z,99550.86
2019-04-05T19:14:25.024Z,99549.96
2019-04-05T19:16:59.209Z,99550.87
2019-04-05T19:19:30.792Z,99555.70
2019-04-05T19:22:01.859Z,99548.20
2019-04-05T19:24:33.804Z,99546.84
2019-04-05T19:27:06.129Z,99550.42
2019-04-05T19:29:37.290Z,99550.06
2019-04-05T19:50:12.588Z,99555.27
2019-04-05T19:52:44.661Z,99560.35
2019-04-05T19:55:17.909Z,99557.44
2019-04-05T19:57:50.210Z,99559.13
2019-04-05T20:00:22.369Z,99557.80
2019-04-05T20:02:54.989Z,99556.78
2019-04-05T20:05:27.351Z,99561.00
2019-04-05T20:07:58.429Z,99557.41
2019-04-05T20:10:30.279Z,99564.37
2019-04-05T20:13:02.355Z,99560.14
2019-04-05T20:15:34.499Z,99566.26
2019-04-05T20:18:06.481Z,99566.26
2019-04-05T20:20:38.691Z,99565.48
2019-04-05T20:23:09.857Z,99573.17
2019-04-05T20:25:42.048Z,99572.61
2019-04-05T20:28:15.761Z,99573.92
2019-04-05T20:30:48.972Z,99573.55
2019-04-05T20:33:21.888Z,99571.09
2019-04-05T20:35:54.188Z,99572.95
2019-04-05T20:38:25.180Z,99572.21
2019-04-05T20:40:57.230Z,99570.30
2019-04-05T20:43:29.299Z,99576.86
2019-04-05T20:46:01.259Z,99572.27
2019-04-05T20:48:34.180Z,99574.97
2019-04-05T20:51:06.387Z,99580.23
2019-04-05T20:53:38.949Z,99581.05
2019-04-05T20:56:11.100Z,99576.16
2019-04-05T20:58:42.319Z,99583.59
2019-04-05T21:01:14.129Z,99580.92
2019-04-05T21:03:46.229Z,99579.36
2019-04-05T21:06:18.252Z,99576.40
2019-04-05T21:08:50.254Z,99580.75
2019-04-05T21:11:22.298Z,99576.31
2019-04-05T21:13:54.328Z,99585.71
2019-04-05T21:16:26.408Z,99585.88
2019-04-05T21:18:58.381Z,99582.30
2019-04-05T21:21:30.478Z,99591.19
2019-04-05T21:24:02.859Z,99583.83
2019-04-05T21:26:35.027Z,99579.01
2019-04-05T21:29:07.038Z,99586.11
2019-04-05T21:31:39.124Z,99584.42
2019-04-05T21:34:10.449Z,99579.38
2019-04-05T21:36:42.313Z,99579.52
2019-04-05T21:39:14.388Z,99577.84
2019-04-05T21:41:46.328Z,99580.99
2019-04-05T21:44:17.549Z,99577.94
2019-04-05T21:46:49.268Z,99573.75
2019-04-05T21:49:21.351Z,99569.81
2019-04-05T21:51:53.271Z,99573.59
2019-04-05T21:54:25.368Z,99579.16
2019-04-05T21:56:57.340Z,99576.31
2019-04-05T21:59:29.261Z,99579.13
2019-04-05T22:02:01.519Z,99576.28
2019-04-05T22:04:32.570Z,99578.68
2019-04-05T22:07:04.391Z,99581.00
2019-04-05T22:09:36.713Z,99579.32
2019-04-05T22:12:08.745Z,99584.42
2019-04-05T22:14:40.729Z,99589.92
2019-04-05T22:17:12.693Z,99585.69
2019-04-05T22:19:44.575Z,99588.98
2019-04-05T22:22:16.562Z,99594.95
2019-04-05T22:24:58.745Z,99592.09
2019-04-05T22:27:23.248Z,99594.59
2019-04-05T22:29:55.721Z,99595.98
2019-04-05T22:32:27.749Z,99594.44
2019-04-05T22:34:59.818Z,99595.90
2019-04-05T22:37:32.249Z,99601.55
2019-04-05T22:40:04.348Z,99601.55
2019-04-05T22:42:36.374Z,99604.39
2019-04-05T22:45:08.973Z,99604.39
2019-04-05T22:47:40.981Z,99603.64
2019-04-05T22:50:13.750Z,99603.03
2019-04-05T22:52:46.821Z,99605.05
2019-04-05T22:55:19.761Z,99607.81
2019-04-05T22:57:51.771Z,99608.44
2019-04-05T23:00:23.800Z,99606.06
2019-04-05T23:02:55.890Z,99611.08
2019-04-05T23:05:28.921Z,99609.94
2019-04-05T23:08:00.951Z,99607.46
2019-04-05T23:10:32.880Z,99614.25
2019-04-05T23:13:04.801Z,99613.41
2019-04-05T23:15:36.823Z,99613.68
2019-04-05T23:18:08.871Z,99611.68
2019-04-05T23:20:40.961Z,99614.13
2019-04-05T23:23:13.848Z,99611.30
2019-04-05T23:25:45.863Z,99615.44
2019-04-05T23:28:17.862Z,99611.81
2019-04-05T23:30:50.041Z,99609.33
2019-04-05T23:33:21.941Z,99605.16
2019-04-05T23:35:53.960Z,99612.52
2019-04-05T23:38:26.101Z,99604.45
2019-04-05T23:40:58.161Z,99601.98
2019-04-05T23:43:30.102Z,99612.95
2019-04-05T23:46:02.281Z,99612.20
2019-04-05T23:48:34.240Z,99608.02
2019-04-05T23:51:06.260Z,99612.50
2019-04-05T23:53:38.181Z,99604.46
2019-04-05T23:56:10.196Z,99607.69
2019-04-05T23:58:42.087Z,99611.75
